createdAt,value
2017-08-06T00:02:15.246Z,16.37
2017-08-06T00:04:42.655Z,16.43
2017-08-06T00:07:10.051Z,16.48
2017-08-06T00:09:37.480Z,16.44
2017-08-06T00:12:04.875Z,16.34
2017-08-06T00:14:32.275Z,16.36
2017-08-06T00:16:59.674Z,16.28
2017-08-06T00:19:27.080Z,16.22
2017-08-06T00:21:54.486Z,16.20
2017-08-06T00:24:22.079Z,16.11
2017-08-06T00:26:49.479Z,16.03
2017-08-06T00:29:16.893Z,15.99
2017-08-06T00:31:44.296Z,15.98
2017-08-06T00:34:11.703Z,15.94
2017-08-06T00:36:39.105Z,15.88
2017-08-06T00:39:06.507Z,15.86
2017-08-06T00:41:33.916Z,15.81
2017-08-06T00:44:01.312Z,15.74
2017-08-06T00:46:28.714Z,15.75
2017-08-06T00:48:56.118Z,15.73
2017-08-06T00:51:23.517Z,15.71
2017-08-06T00:53:50.932Z,15.66
2017-08-06T00:56:18.331Z,15.68
2017-08-06T00:58:45.794Z,15.66
2017-08-06T01:01:13.188Z,15.61
2017-08-06T01:03:40.587Z,15.53
2017-08-06T01:06:07.990Z,15.53
2017-08-06T01:08:35.396Z,15.59
2017-08-06T01:11:02.802Z,15.63
2017-08-06T01:13:30.212Z,15.68
2017-08-06T01:15:57.611Z,15.68
2017-08-06T01:18:25.007Z,15.68
2017-08-06T01:20:52.411Z,15.72
2017-08-06T01:23:19.835Z,15.69
2017-08-06T01:25:47.231Z,15.70
2017-08-06T01:28:14.643Z,15.70
2017-08-06T01:30:42.043Z,15.71
2017-08-06T01:33:09.447Z,15.72
2017-08-06T01:35:36.867Z,15.69
2017-08-06T01:38:04.267Z,15.66
2017-08-06T01:40:31.664Z,15.63
2017-08-06T01:42:59.075Z,15.59
2017-08-06T01:45:26.480Z,15.54
2017-08-06T01:47:53.887Z,15.57
2017-08-06T01:50:21.283Z,15.51
2017-08-06T01:52:48.684Z,15.49
2017-08-06T01:55:16.083Z,15.39
2017-08-06T01:57:43.479Z,15.36
2017-08-06T02:00:10.895Z,15.30
2017-08-06T02:02:38.307Z,15.25
2017-08-06T02:05:05.720Z,15.20
2017-08-06T02:07:33.135Z,15.16
2017-08-06T02:10:00.534Z,15.09
2017-08-06T02:12:27.947Z,15.02
2017-08-06T02:14:55.347Z,15.01
2017-08-06T02:17:22.743Z,14.99
2017-08-06T02:19:50.146Z,14.95
2017-08-06T02:22:17.547Z,14.96
2017-08-06T02:24:44.967Z,14.88
2017-08-06T02:27:12.371Z,14.86
2017-08-06T02:29:39.776Z,14.82
2017-08-06T02:32:07.190Z,14.83
2017-08-06T02:34:34.595Z,14.74
2017-08-06T02:37:02.144Z,14.69
2017-08-06T02:39:29.558Z,14.70
2017-08-06T02:41:56.963Z,14.80
2017-08-06T02:44:24.371Z,14.89
2017-08-06T02:46:51.772Z,14.98
2017-08-06T02:49:19.179Z,15.06
2017-08-06T02:51:46.575Z,15.09
2017-08-06T02:54:13.979Z,15.10
2017-08-06T02:56:41.387Z,15.10
2017-08-06T02:59:08.779Z,15.09
2017-08-06T03:01:36.219Z,15.08
2017-08-06T03:04:03.615Z,15.06
2017-08-06T03:06:31.011Z,15.10
2017-08-06T03:08:58.415Z,15.16
2017-08-06T03:11:25.820Z,15.25
2017-08-06T03:13:53.227Z,15.31
2017-08-06T03:16:20.627Z,15.39
2017-08-06T03:18:48.027Z,15.43
2017-08-06T03:21:15.436Z,15.45
2017-08-06T03:23:42.832Z,15.43
2017-08-06T03:26:10.247Z,15.40
2017-08-06T03:28:37.643Z,15.34
2017-08-06T03:31:05.044Z,15.27
2017-08-06T03:33:32.447Z,15.21
2017-08-06T03:35:59.847Z,15.20
2017-08-06T03:38:27.264Z,15.19
2017-08-06T03:40:54.655Z,15.22
2017-08-06T03:43:22.060Z,15.29
2017-08-06T03:45:49.476Z,15.33
2017-08-06T03:48:16.870Z,15.41
2017-08-06T03:50:44.268Z,15.38
2017-08-06T03:53:11.674Z,15.40
2017-08-06T03:55:39.082Z,15.46
2017-08-06T03:58:06.480Z,15.51
2017-08-06T04:00:33.895Z,15.60
2017-08-06T04:03:01.301Z,15.67
2017-08-06T04:05:29.324Z,15.71
2017-08-06T04:07:56.715Z,15.71
2017-08-06T04:10:24.113Z,15.75
2017-08-06T04:12:51.519Z,15.78
2017-08-06T04:15:18.925Z,15.81
2017-08-06T04:17:46.344Z,15.81
2017-08-06T04:20:13.735Z,15.82
2017-08-06T04:22:41.168Z,15.82
2017-08-06T04:25:08.603Z,15.79
2017-08-06T04:27:36.003Z,15.83
2017-08-06T04:30:03.419Z,15.91
2017-08-06T04:32:30.831Z,15.96
2017-08-06T04:34:58.227Z,15.93
2017-08-06T04:37:25.643Z,16.01
2017-08-06T04:39:53.044Z,16.00
2017-08-06T04:42:20.456Z,15.97
2017-08-06T04:44:47.860Z,15.95
2017-08-06T04:47:15.265Z,15.94
2017-08-06T04:49:42.671Z,15.93
2017-08-06T04:52:10.077Z,15.93
2017-08-06T04:54:37.496Z,15.94
2017-08-06T04:57:04.887Z,15.99
2017-08-06T04:59:32.287Z,16.01
2017-08-06T05:01:59.691Z,16.03
2017-08-06T05:04:27.106Z,16.03
2017-08-06T05:06:54.520Z,16.00
2017-08-06T05:09:21.923Z,15.99
2017-08-06T05:11:49.318Z,15.94
2017-08-06T05:14:16.727Z,15.90
2017-08-06T05:16:44.127Z,15.94
2017-08-06T05:19:11.535Z,15.93
2017-08-06T05:21:38.937Z,15.91
2017-08-06T05:24:06.340Z,15.85
2017-08-06T05:26:33.745Z,15.84
2017-08-06T05:29:01.139Z,15.83
2017-08-06T05:31:28.551Z,15.88
2017-08-06T05:33:55.951Z,15.87
2017-08-06T05:36:23.351Z,15.93
2017-08-06T05:38:50.759Z,15.86
2017-08-06T05:41:18.163Z,15.85
2017-08-06T05:43:45.575Z,15.83
2017-08-06T05:46:12.983Z,15.84
2017-08-06T05:48:40.374Z,15.91
2017-08-06T05:51:07.779Z,15.95
2017-08-06T05:53:35.177Z,16.09
2017-08-06T05:56:02.586Z,16.24
2017-08-06T05:58:29.988Z,16.36
2017-08-06T06:00:57.399Z,16.35
2017-08-06T06:03:24.815Z,16.40
2017-08-06T06:05:52.216Z,16.42
2017-08-06T06:08:19.628Z,16.34
2017-08-06T06:10:47.024Z,16.29
2017-08-06T06:13:14.433Z,16.32
2017-08-06T06:15:41.831Z,16.30
2017-08-06T06:18:09.250Z,16.33
2017-08-06T06:20:36.654Z,16.42
2017-08-06T06:23:04.059Z,16.55
2017-08-06T06:25:31.471Z,16.40
2017-08-06T06:27:58.859Z,16.35
2017-08-06T06:30:26.279Z,16.24
2017-08-06T06:32:53.954Z,16.39
2017-08-06T06:35:21.371Z,16.55
2017-08-06T06:37:48.791Z,16.70
2017-08-06T06:40:16.179Z,16.78
2017-08-06T06:42:43.627Z,16.80
2017-08-06T06:45:11.050Z,16.83
2017-08-06T06:47:38.450Z,16.91
2017-08-06T06:50:05.850Z,16.93
2017-08-06T06:52:33.287Z,16.93
2017-08-06T06:55:00.692Z,16.97
2017-08-06T06:57:28.143Z,16.87
2017-08-06T06:59:55.550Z,16.80
2017-08-06T07:02:23.019Z,16.64
2017-08-06T07:04:50.460Z,16.65
2017-08-06T07:07:17.855Z,16.64
2017-08-06T07:09:45.295Z,16.47
2017-08-06T07:12:12.752Z,16.40
2017-08-06T07:14:40.179Z,16.30
2017-08-06T07:17:07.676Z,16.31
2017-08-06T07:19:35.071Z,16.47
2017-08-06T07:22:02.476Z,16.72
2017-08-06T07:24:29.879Z,17.01
2017-08-06T07:26:57.300Z,17.42
2017-08-06T07:29:24.694Z,17.83
2017-08-06T07:31:52.104Z,18.10
2017-08-06T07:34:19.503Z,18.39
2017-08-06T07:36:46.903Z,18.59
2017-08-06T07:39:14.307Z,18.72
2017-08-06T07:41:41.751Z,18.64
2017-08-06T07:44:09.143Z,18.60
2017-08-06T07:46:36.546Z,18.54
2017-08-06T07:49:03.960Z,18.61
2017-08-06T07:51:31.364Z,18.58
2017-08-06T07:53:58.771Z,18.75
2017-08-06T07:56:26.168Z,18.83
2017-08-06T07:58:53.570Z,18.98
2017-08-06T08:01:20.975Z,19.11
2017-08-06T08:03:48.380Z,19.13
2017-08-06T08:06:15.803Z,19.21
2017-08-06T08:08:43.206Z,19.23
2017-08-06T08:11:10.603Z,19.29
2017-08-06T08:13:38.012Z,19.37
2017-08-06T08:16:05.424Z,19.30
2017-08-06T08:18:32.823Z,19.22
2017-08-06T08:21:00.219Z,19.05
2017-08-06T08:23:27.639Z,19.09
2017-08-06T08:25:55.039Z,19.21
2017-08-06T08:28:22.435Z,18.82
2017-08-06T08:30:49.848Z,18.76
2017-08-06T08:33:17.245Z,18.67
2017-08-06T08:35:44.646Z,18.48
2017-08-06T08:38:12.048Z,18.35
2017-08-06T08:40:39.679Z,18.35
2017-08-06T08:43:07.092Z,18.26
2017-08-06T08:45:34.486Z,18.22
2017-08-06T08:48:01.899Z,18.36
2017-08-06T08:50:29.287Z,18.54
2017-08-06T08:52:56.711Z,18.69
2017-08-06T08:55:24.115Z,19.10
2017-08-06T08:57:51.514Z,19.53
2017-08-06T09:00:18.924Z,19.94
2017-08-06T09:02:46.321Z,20.49
2017-08-06T09:05:13.727Z,20.88
2017-08-06T09:07:41.127Z,20.90
2017-08-06T09:10:08.530Z,20.62
2017-08-06T09:12:35.940Z,20.40
2017-08-06T09:15:03.343Z,20.24
2017-08-06T09:17:30.747Z,20.14
2017-08-06T09:19:58.144Z,20.06
2017-08-06T09:22:25.551Z,20.05
2017-08-06T09:24:52.957Z,20.25
2017-08-06T09:27:20.355Z,20.62
2017-08-06T09:29:47.756Z,21.06
2017-08-06T09:32:15.160Z,21.53
2017-08-06T09:34:42.567Z,21.85
2017-08-06T09:37:09.966Z,22.07
2017-08-06T09:39:37.363Z,21.79
2017-08-06T09:42:04.755Z,21.14
2017-08-06T09:44:32.163Z,21.00
2017-08-06T09:46:59.564Z,20.71
2017-08-06T09:49:26.955Z,21.02
2017-08-06T09:51:54.378Z,21.56
2017-08-06T09:54:21.753Z,21.80
2017-08-06T09:56:49.155Z,22.30
2017-08-06T09:59:16.555Z,22.44
2017-08-06T10:01:43.953Z,21.85
2017-08-06T10:04:11.347Z,21.54
2017-08-06T10:06:38.752Z,21.82
2017-08-06T10:09:06.147Z,22.21
2017-08-06T10:11:33.551Z,22.59
2017-08-06T10:14:00.966Z,23.14
2017-08-06T10:16:28.362Z,23.47
2017-08-06T10:18:55.769Z,23.76
2017-08-06T10:21:23.166Z,24.32
2017-08-06T10:23:50.583Z,24.48
2017-08-06T10:26:17.979Z,24.34
2017-08-06T10:28:45.379Z,24.62
2017-08-06T10:31:12.782Z,24.84
2017-08-06T10:33:40.191Z,25.37
2017-08-06T10:36:07.598Z,25.41
2017-08-06T10:38:35.007Z,25.41
2017-08-06T10:41:02.396Z,25.58
2017-08-06T10:43:29.814Z,25.85
2017-08-06T10:45:57.223Z,26.24
2017-08-06T10:48:24.633Z,26.51
2017-08-06T10:50:52.032Z,25.99
2017-08-06T10:53:19.453Z,26.60
2017-08-06T10:55:46.843Z,26.94
2017-08-06T10:58:14.247Z,27.10
2017-08-06T11:00:41.650Z,26.98
2017-08-06T11:03:09.053Z,26.96
2017-08-06T11:05:36.456Z,26.70
2017-08-06T11:08:03.851Z,26.13
2017-08-06T11:10:31.268Z,26.10
2017-08-06T11:12:58.664Z,26.62
2017-08-06T11:15:26.069Z,27.12
2017-08-06T11:17:53.477Z,27.53
2017-08-06T11:20:20.876Z,27.92
2017-08-06T11:22:48.290Z,27.80
2017-08-06T11:25:15.691Z,27.55
2017-08-06T11:27:43.091Z,27.58
2017-08-06T11:30:10.495Z,26.85
2017-08-06T11:32:37.900Z,26.07
2017-08-06T11:35:05.310Z,25.01
2017-08-06T11:37:32.708Z,24.85
2017-08-06T11:40:00.115Z,25.43
2017-08-06T11:42:27.523Z,25.94
2017-08-06T11:44:54.927Z,26.52
2017-08-06T11:47:22.331Z,26.80
2017-08-06T11:49:49.739Z,27.06
2017-08-06T11:52:17.151Z,26.69
2017-08-06T11:54:44.552Z,25.97
2017-08-06T11:57:11.947Z,25.69
2017-08-06T11:59:39.351Z,26.02
2017-08-06T12:02:06.748Z,26.05
2017-08-06T12:04:34.159Z,26.16
2017-08-06T12:07:01.561Z,25.62
2017-08-06T12:09:28.966Z,25.10
2017-08-06T12:11:56.363Z,24.58
2017-08-06T12:14:23.774Z,23.97
2017-08-06T12:16:52.008Z,23.13
2017-08-06T12:19:19.411Z,23.40
2017-08-06T12:21:46.809Z,23.66
2017-08-06T12:24:14.216Z,24.67
2017-08-06T12:26:41.619Z,25.60
2017-08-06T12:29:09.028Z,25.30
2017-08-06T12:31:36.436Z,25.02
2017-08-06T12:34:03.839Z,25.36
2017-08-06T12:36:31.242Z,25.71
2017-08-06T12:38:58.654Z,25.18
2017-08-06T12:41:26.046Z,24.50
2017-08-06T12:43:53.459Z,23.99
2017-08-06T12:46:20.855Z,23.77
2017-08-06T12:48:48.272Z,23.69
2017-08-06T12:51:15.671Z,23.75
2017-08-06T12:53:43.071Z,23.47
2017-08-06T12:56:10.480Z,24.08
2017-08-06T12:58:37.880Z,24.60
2017-08-06T13:01:05.284Z,24.99
2017-08-06T13:03:32.702Z,25.67
2017-08-06T13:06:00.094Z,25.89
2017-08-06T13:08:27.503Z,25.63
2017-08-06T13:10:54.903Z,25.46
2017-08-06T13:13:22.314Z,25.33
2017-08-06T13:15:49.714Z,25.19
2017-08-06T13:18:17.116Z,24.88
2017-08-06T13:20:44.529Z,24.83
2017-08-06T13:23:11.940Z,25.10
2017-08-06T13:25:39.335Z,25.22
2017-08-06T13:28:06.751Z,24.79
2017-08-06T13:30:34.146Z,24.44
2017-08-06T13:33:01.556Z,24.60
2017-08-06T13:35:29.583Z,25.06
2017-08-06T13:37:56.976Z,25.18
2017-08-06T13:40:24.411Z,24.88
2017-08-06T13:42:51.808Z,24.66
2017-08-06T13:45:19.234Z,24.48
2017-08-06T13:47:46.631Z,24.47
2017-08-06T13:50:14.032Z,24.73
2017-08-06T13:52:41.442Z,24.94
2017-08-06T13:55:08.848Z,25.47
2017-08-06T13:57:36.254Z,25.87
2017-08-06T14:00:03.651Z,26.03
2017-08-06T14:02:31.056Z,26.36
2017-08-06T14:04:58.461Z,26.21
2017-08-06T14:07:25.868Z,26.11
2017-08-06T14:09:53.262Z,25.29
2017-08-06T14:12:20.663Z,25.02
2017-08-06T14:14:48.060Z,24.36
2017-08-06T14:17:15.500Z,24.30
2017-08-06T14:19:42.896Z,24.51
2017-08-06T14:22:10.296Z,24.70
2017-08-06T14:24:37.717Z,24.80
2017-08-06T14:27:05.120Z,24.95
2017-08-06T14:29:32.523Z,24.70
2017-08-06T14:31:59.949Z,24.67
2017-08-06T14:34:27.339Z,24.23
2017-08-06T14:36:54.743Z,23.84
2017-08-06T14:39:22.164Z,23.67
2017-08-06T14:41:49.568Z,23.86
2017-08-06T14:44:16.956Z,23.86
2017-08-06T14:46:44.392Z,23.84
2017-08-06T14:49:11.792Z,23.76
2017-08-06T14:51:39.196Z,23.67
2017-08-06T14:54:06.608Z,23.75
2017-08-06T14:56:34.000Z,23.70
2017-08-06T14:59:01.416Z,23.68
2017-08-06T15:01:28.844Z,23.69
2017-08-06T15:03:56.231Z,23.72
2017-08-06T15:06:23.647Z,23.76
2017-08-06T15:08:51.047Z,23.61
2017-08-06T15:11:18.464Z,23.60
2017-08-06T15:13:45.883Z,23.73
2017-08-06T15:16:13.293Z,23.98
2017-08-06T15:18:40.727Z,24.20
2017-08-06T15:21:08.122Z,24.28
2017-08-06T15:23:35.550Z,24.36
2017-08-06T15:26:02.959Z,24.31
2017-08-06T15:28:30.395Z,24.39
2017-08-06T15:30:57.806Z,24.51
2017-08-06T15:33:25.227Z,24.41
2017-08-06T15:35:52.622Z,24.53
2017-08-06T15:38:20.053Z,24.42
2017-08-06T15:40:47.443Z,24.22
2017-08-06T15:43:14.855Z,23.91
2017-08-06T15:45:42.263Z,24.05
2017-08-06T15:48:09.658Z,23.94
2017-08-06T15:50:37.107Z,23.92
2017-08-06T15:53:04.512Z,23.90
2017-08-06T15:55:31.915Z,23.89
2017-08-06T15:57:59.319Z,23.85
2017-08-06T16:00:26.727Z,23.76
2017-08-06T16:02:54.128Z,23.65
2017-08-06T16:05:21.523Z,23.57
2017-08-06T16:07:48.932Z,23.61
2017-08-06T16:10:16.333Z,23.71
2017-08-06T16:12:43.738Z,23.91
2017-08-06T16:15:11.143Z,24.05
2017-08-06T16:17:38.567Z,24.24
2017-08-06T16:20:05.964Z,24.34
2017-08-06T16:22:33.390Z,24.47
2017-08-06T16:25:01.305Z,24.54
2017-08-06T16:27:28.726Z,24.57
2017-08-06T16:29:56.140Z,24.51
2017-08-06T16:32:23.566Z,24.56
2017-08-06T16:34:50.991Z,24.61
2017-08-06T16:37:18.400Z,24.49
2017-08-06T16:39:45.804Z,24.41
2017-08-06T16:42:13.271Z,24.30
2017-08-06T16:44:40.668Z,24.21
2017-08-06T16:47:08.071Z,24.17
2017-08-06T16:49:35.472Z,24.16
2017-08-06T16:52:02.915Z,24.23
2017-08-06T16:54:30.314Z,24.21
2017-08-06T16:56:57.743Z,24.23
2017-08-06T16:59:25.159Z,24.16
2017-08-06T17:01:52.590Z,24.01
2017-08-06T17:04:19.993Z,23.88
2017-08-06T17:06:47.402Z,23.78
2017-08-06T17:09:14.841Z,23.70
2017-08-06T17:11:42.232Z,23.60
2017-08-06T17:14:09.639Z,23.56
2017-08-06T17:16:37.056Z,23.53
2017-08-06T17:19:04.458Z,23.57
2017-08-06T17:21:31.846Z,23.46
2017-08-06T17:23:59.278Z,23.36
2017-08-06T17:26:26.696Z,23.25
2017-08-06T17:28:54.137Z,23.15
2017-08-06T17:31:21.540Z,23.12
2017-08-06T17:33:48.972Z,23.08
2017-08-06T17:36:16.442Z,23.03
2017-08-06T17:38:43.831Z,23.05
2017-08-06T17:41:11.232Z,23.01
2017-08-06T17:43:38.627Z,22.97
2017-08-06T17:46:06.032Z,22.94
2017-08-06T17:48:33.448Z,22.88
2017-08-06T17:51:00.840Z,22.80
2017-08-06T17:53:28.235Z,22.80
2017-08-06T17:55:55.643Z,22.74
2017-08-06T17:58:23.034Z,22.67
2017-08-06T18:00:50.436Z,22.63
2017-08-06T18:03:17.834Z,22.59
2017-08-06T18:05:45.234Z,22.53
2017-08-06T18:08:12.632Z,22.48
2017-08-06T18:10:40.047Z,22.39
2017-08-06T18:13:07.443Z,22.29
2017-08-06T18:15:34.840Z,22.19
2017-08-06T18:18:02.243Z,22.09
2017-08-06T18:20:29.639Z,21.95
2017-08-06T18:22:57.053Z,21.83
2017-08-06T18:25:24.457Z,21.70
2017-08-06T18:27:51.863Z,21.62
2017-08-06T18:30:19.255Z,21.52
2017-08-06T18:32:46.659Z,21.45
2017-08-06T18:35:14.058Z,21.36
2017-08-06T18:37:41.468Z,21.28
2017-08-06T18:40:08.867Z,21.20
2017-08-06T18:42:36.275Z,21.10
2017-08-06T18:45:03.682Z,20.95
2017-08-06T18:47:31.096Z,20.82
2017-08-06T18:49:58.492Z,20.71
2017-08-06T18:52:25.895Z,20.58
2017-08-06T18:54:53.298Z,20.49
2017-08-06T18:57:20.711Z,20.36
2017-08-06T18:59:48.111Z,20.24
2017-08-06T19:02:15.511Z,20.10
2017-08-06T19:04:42.916Z,19.97
2017-08-06T19:07:10.319Z,19.86
2017-08-06T19:09:37.724Z,19.76
2017-08-06T19:12:05.144Z,19.66
2017-08-06T19:14:32.548Z,19.55
2017-08-06T19:16:59.962Z,19.46
2017-08-06T19:19:27.363Z,19.37
2017-08-06T19:21:54.787Z,19.28
2017-08-06T19:24:22.191Z,19.21
2017-08-06T19:26:49.592Z,19.11
2017-08-06T19:29:16.995Z,19.03
2017-08-06T19:31:44.407Z,18.95
2017-08-06T19:34:11.808Z,18.92
2017-08-06T19:36:39.216Z,18.85
2017-08-06T19:39:06.616Z,18.79
2017-08-06T19:41:34.026Z,18.71
2017-08-06T19:44:01.423Z,18.62
2017-08-06T19:46:28.828Z,18.59
2017-08-06T19:48:56.239Z,18.55
2017-08-06T19:51:23.644Z,18.49
2017-08-06T19:53:51.076Z,18.50
2017-08-06T19:56:18.481Z,18.49
2017-08-06T19:58:45.879Z,18.48
2017-08-06T20:01:13.284Z,18.39
2017-08-06T20:03:40.691Z,18.33
2017-08-06T20:06:08.098Z,18.24
2017-08-06T20:08:35.493Z,18.18
2017-08-06T20:11:02.905Z,18.14
2017-08-06T20:13:30.307Z,18.12
2017-08-06T20:15:57.719Z,18.02
2017-08-06T20:18:25.115Z,18.03
2017-08-06T20:20:52.527Z,18.05
2017-08-06T20:23:19.923Z,18.02
2017-08-06T20:25:47.334Z,17.98
2017-08-06T20:28:14.729Z,17.93
2017-08-06T20:30:42.134Z,17.85
2017-08-06T20:33:09.543Z,17.80
2017-08-06T20:35:36.956Z,17.74
2017-08-06T20:38:04.356Z,17.74
2017-08-06T20:40:31.767Z,17.70
2017-08-06T20:42:59.159Z,17.72
2017-08-06T20:45:26.571Z,17.66
2017-08-06T20:47:53.979Z,17.66
2017-08-06T20:50:21.401Z,17.68
2017-08-06T20:52:48.790Z,17.68
2017-08-06T20:55:16.196Z,17.67
2017-08-06T20:57:43.611Z,17.59
2017-08-06T21:00:11.012Z,17.56
2017-08-06T21:02:38.408Z,17.46
2017-08-06T21:05:05.812Z,17.44
2017-08-06T21:07:33.211Z,17.42
2017-08-06T21:10:00.620Z,17.41
2017-08-06T21:12:28.015Z,17.45
2017-08-06T21:14:55.429Z,17.38
2017-08-06T21:17:22.822Z,17.32
2017-08-06T21:19:50.221Z,17.24
2017-08-06T21:22:17.628Z,17.23
2017-08-06T21:24:45.031Z,17.20
2017-08-06T21:27:12.451Z,17.18
2017-08-06T21:29:39.857Z,17.09
2017-08-06T21:32:07.260Z,17.07
2017-08-06T21:34:34.668Z,17.05
2017-08-06T21:37:02.062Z,17.07
2017-08-06T21:39:29.471Z,17.04
2017-08-06T21:41:56.871Z,17.01
2017-08-06T21:44:24.283Z,17.02
2017-08-06T21:46:51.680Z,16.97
2017-08-06T21:49:19.095Z,16.87
2017-08-06T21:51:46.496Z,16.86
2017-08-06T21:54:13.903Z,16.82
2017-08-06T21:56:41.303Z,16.78
2017-08-06T21:59:08.703Z,16.74
2017-08-06T22:01:36.119Z,16.66
2017-08-06T22:04:03.511Z,16.62
2017-08-06T22:06:30.923Z,16.58
2017-08-06T22:08:58.332Z,16.52
2017-08-06T22:11:25.747Z,16.48
2017-08-06T22:13:53.144Z,16.45
2017-08-06T22:16:20.537Z,16.41
2017-08-06T22:18:47.951Z,16.34
2017-08-06T22:21:15.347Z,16.31
2017-08-06T22:23:42.770Z,16.31
2017-08-06T22:26:10.179Z,16.30
2017-08-06T22:28:37.574Z,16.22
2017-08-06T22:31:04.978Z,16.27
2017-08-06T22:33:32.387Z,16.31
2017-08-06T22:35:59.786Z,16.35
2017-08-06T22:38:27.191Z,16.35
2017-08-06T22:40:54.597Z,16.37
2017-08-06T22:43:21.994Z,16.37
2017-08-06T22:45:49.401Z,16.38
2017-08-06T22:48:16.797Z,16.37
2017-08-06T22:50:44.191Z,16.36
2017-08-06T22:53:11.595Z,16.36
2017-08-06T22:55:38.990Z,16.34
2017-08-06T22:58:06.402Z,16.32
2017-08-06T23:00:33.813Z,16.24
2017-08-06T23:03:01.211Z,16.21
2017-08-06T23:05:28.627Z,16.21
2017-08-06T23:07:56.028Z,16.14
2017-08-06T23:10:23.435Z,16.14
2017-08-06T23:12:50.835Z,16.11
2017-08-06T23:15:18.248Z,16.07
2017-08-06T23:17:45.642Z,16.01
2017-08-06T23:20:13.062Z,15.95
2017-08-06T23:22:40.468Z,15.91
2017-08-06T23:25:07.868Z,15.89
2017-08-06T23:27:35.272Z,15.85
2017-08-06T23:30:02.675Z,15.81
2017-08-06T23:32:30.091Z,15.80
2017-08-06T23:34:57.487Z,15.74
2017-08-06T23:37:24.883Z,15.70
2017-08-06T23:39:52.439Z,15.75
2017-08-06T23:42:19.836Z,15.70
2017-08-06T23:44:47.244Z,15.77
2017-08-06T23:47:14.648Z,15.73
2017-08-06T23:49:42.048Z,15.69
2017-08-06T23:52:09.456Z,15.64
2017-08-06T23:54:36.856Z,15.60
2017-08-06T23:57:04.271Z,15.53
2017-08-06T23:59:31.667Z,15.47
